createdAt,value
2022-12-17T00:02:22.726Z,-2.11
2022-12-17T00:05:05.858Z,-2.13
2022-12-17T00:07:51.193Z,-2.07
2022-12-17T00:10:35.501Z,-2.08
2022-12-17T00:13:19.360Z,-2.06
2022-12-17T00:16:07.230Z,-2.00
2022-12-17T00:18:50.769Z,-1.99
2022-12-17T00:21:35.734Z,-1.98
2022-12-17T00:24:24.001Z,-1.96
2022-12-17T00:27:19.223Z,-1.95
2022-12-17T00:30:02.346Z,-1.93
2022-12-17T00:32:45.971Z,-1.92
2022-12-17T00:35:29.350Z,-1.90
2022-12-17T00:38:13.159Z,-1.91
2022-12-17T00:41:08.580Z,-1.91
2022-12-17T00:43:52.011Z,-1.89
2022-12-17T00:46:35.179Z,-1.89
2022-12-17T00:49:18.510Z,-1.93
2022-12-17T00:52:01.256Z,-1.91
2022-12-17T00:54:44.749Z,-1.89
2022-12-17T00:57:30.787Z,-1.91
2022-12-17T01:00:14.440Z,-1.92
2022-12-17T01:02:57.589Z,-1.93
2022-12-17T01:05:41.093Z,-1.90
2022-12-17T01:08:28.986Z,-2.04
2022-12-17T01:11:15.255Z,-2.33
2022-12-17T01:14:13.773Z,-2.35
2022-12-17T01:16:57.070Z,-2.16
2022-12-17T01:19:40.241Z,-2.13
2022-12-17T01:22:23.718Z,-2.16
2022-12-17T01:25:20.870Z,-2.21
2022-12-17T01:28:04.294Z,-2.10
2022-12-17T01:30:57.899Z,-2.17
2022-12-17T01:33:41.021Z,-2.07
2022-12-17T01:36:23.841Z,-1.99
2022-12-17T01:39:18.321Z,-1.97
2022-12-17T01:42:00.719Z,-1.97
2022-12-17T01:45:02.236Z,-1.94
2022-12-17T01:47:52.364Z,-2.01
2022-12-17T01:50:37.631Z,-2.06
2022-12-17T01:53:22.972Z,-2.11
2022-12-17T01:56:06.701Z,-2.19
2022-12-17T01:58:49.929Z,-2.13
2022-12-17T02:01:33.245Z,-2.17
2022-12-17T02:04:18.735Z,-2.38
2022-12-17T02:07:09.458Z,-2.35
2022-12-17T02:10:00.296Z,-2.29
2022-12-17T02:12:49.752Z,-2.19
2022-12-17T02:15:35.834Z,-2.41
2022-12-17T02:18:26.401Z,-2.42
2022-12-17T02:21:13.227Z,-2.38
2022-12-17T02:24:04.174Z,-2.29
2022-12-17T02:26:53.893Z,-2.46
2022-12-17T02:29:39.781Z,-2.48
2022-12-17T02:32:24.373Z,-2.50
2022-12-17T02:35:07.980Z,-2.40
2022-12-17T02:38:02.046Z,-2.42
2022-12-17T02:40:44.909Z,-2.54
2022-12-17T02:43:30.080Z,-2.50
2022-12-17T02:46:13.034Z,-2.52
2022-12-17T02:48:55.439Z,-2.42
2022-12-17T02:51:39.177Z,-2.41
2022-12-17T02:54:21.558Z,-2.41
2022-12-17T02:57:04.360Z,-2.52
2022-12-17T02:59:49.254Z,-2.46
2022-12-17T03:02:32.101Z,-2.48
2022-12-17T03:05:42.781Z,-2.54
2022-12-17T03:08:17.274Z,-2.40
2022-12-17T03:10:59.601Z,-2.47
2022-12-17T03:13:43.964Z,-2.52
2022-12-17T03:16:37.107Z,-2.56
2022-12-17T03:19:20.632Z,-2.50
2022-12-17T03:22:02.999Z,-2.43
2022-12-17T03:24:45.751Z,-2.47
2022-12-17T03:27:28.840Z,-2.42
2022-12-17T03:30:11.618Z,-2.38
2022-12-17T03:32:56.581Z,-2.45
2022-12-17T03:35:39.347Z,-2.50
2022-12-17T03:38:23.220Z,-2.52
2022-12-17T03:41:06.346Z,-2.61
2022-12-17T03:43:48.674Z,-2.64
2022-12-17T03:46:31.467Z,-2.49
2022-12-17T03:49:16.469Z,-2.62
2022-12-17T03:51:59.171Z,-2.58
2022-12-17T03:54:53.656Z,-2.60
2022-12-17T03:57:36.380Z,-2.64
2022-12-17T04:00:20.830Z,-2.59
2022-12-17T04:03:03.683Z,-2.57
2022-12-17T04:05:48.908Z,-2.73
2022-12-17T04:08:31.583Z,-2.93
2022-12-17T04:11:13.922Z,-2.99
2022-12-17T04:13:56.606Z,-2.84
2022-12-17T04:16:39.161Z,-2.80
2022-12-17T04:19:30.560Z,-2.69
2022-12-17T04:22:15.505Z,-2.80
2022-12-17T04:24:58.447Z,-2.64
2022-12-17T04:27:41.038Z,-2.58
2022-12-17T04:30:25.064Z,-2.55
2022-12-17T04:33:07.744Z,-2.53
2022-12-17T04:35:50.488Z,-2.54
2022-12-17T04:38:35.613Z,-2.47
2022-12-17T04:41:18.479Z,-2.56
2022-12-17T04:44:03.228Z,-2.57
2022-12-17T04:46:49.220Z,-2.52
2022-12-17T04:49:32.055Z,-2.50
2022-12-17T04:52:14.736Z,-2.62
2022-12-17T04:54:59.718Z,-2.57
2022-12-17T04:57:46.801Z,-2.64
2022-12-17T05:00:30.006Z,-2.95
2022-12-17T05:03:19.740Z,-2.95
2022-12-17T05:06:02.157Z,-2.86
2022-12-17T05:08:44.806Z,-2.93
2022-12-17T05:11:29.734Z,-2.75
2022-12-17T05:14:12.513Z,-2.81
2022-12-17T05:16:54.822Z,-2.80
2022-12-17T05:19:37.545Z,-2.64
2022-12-17T05:22:19.865Z,-2.67
2022-12-17T05:25:02.560Z,-2.73
2022-12-17T05:27:47.506Z,-2.68
2022-12-17T05:30:30.383Z,-2.64
2022-12-17T05:33:16.526Z,-2.65
2022-12-17T05:35:59.427Z,-2.60
2022-12-17T05:38:41.802Z,-2.73
2022-12-17T05:41:24.562Z,-2.71
2022-12-17T05:44:09.497Z,-2.59
2022-12-17T05:46:52.329Z,-2.66
2022-12-17T05:49:43.657Z,-2.56
2022-12-17T05:52:26.390Z,-2.67
2022-12-17T05:55:08.575Z,-2.58
2022-12-17T05:57:56.240Z,-2.62
2022-12-17T06:00:41.770Z,-2.78
2022-12-17T06:03:25.044Z,-2.69
2022-12-17T06:06:09.852Z,-2.66
2022-12-17T06:08:52.603Z,-2.84
2022-12-17T06:11:49.789Z,-2.64
2022-12-17T06:14:32.478Z,-2.61
2022-12-17T06:17:17.370Z,-2.58
2022-12-17T06:20:00.030Z,-2.72
2022-12-17T06:22:42.372Z,-2.68
2022-12-17T06:25:25.105Z,-2.85
2022-12-17T06:28:13.196Z,-2.86
2022-12-17T06:30:55.940Z,-3.09
2022-12-17T06:33:41.188Z,-3.19
2022-12-17T06:36:24.288Z,-2.94
2022-12-17T06:39:07.055Z,-2.85
2022-12-17T06:41:50.047Z,-2.82
2022-12-17T06:44:44.582Z,-2.91
2022-12-17T06:47:27.569Z,-3.04
2022-12-17T06:50:12.793Z,-2.86
2022-12-17T06:52:55.726Z,-2.97
2022-12-17T06:55:38.294Z,-3.02
2022-12-17T06:58:21.239Z,-2.91
2022-12-17T07:01:06.957Z,-2.71
2022-12-17T07:03:50.016Z,-2.76
2022-12-17T07:06:35.214Z,-2.81
2022-12-17T07:09:18.481Z,-3.06
2022-12-17T07:12:01.106Z,-3.05
2022-12-17T07:14:43.934Z,-3.12
2022-12-17T07:17:26.314Z,-3.34
2022-12-17T07:20:09.026Z,-3.27
2022-12-17T07:22:53.952Z,-3.14
2022-12-17T07:25:39.417Z,-3.11
2022-12-17T07:28:26.687Z,-3.32
2022-12-17T07:31:11.330Z,-3.25
2022-12-17T07:33:53.688Z,-3.28
2022-12-17T07:36:36.797Z,-3.13
2022-12-17T07:39:21.771Z,-3.25
2022-12-17T07:42:04.440Z,-3.26
2022-12-17T07:44:46.773Z,-3.23
2022-12-17T07:47:29.463Z,-3.34
2022-12-17T07:50:11.850Z,-3.31
2022-12-17T07:52:54.567Z,-3.06
2022-12-17T07:55:39.452Z,-2.95
2022-12-17T07:58:25.753Z,-2.88
2022-12-17T08:01:08.146Z,-3.02
2022-12-17T08:03:51.099Z,-3.04
2022-12-17T08:06:33.502Z,-2.97
2022-12-17T08:09:16.228Z,-3.11
2022-12-17T08:12:01.200Z,-3.20
2022-12-17T08:14:49.321Z,-3.05
2022-12-17T08:17:31.593Z,-3.35
2022-12-17T08:20:14.586Z,-3.36
2022-12-17T08:22:57.069Z,-3.10
2022-12-17T08:25:39.935Z,-3.10
2022-12-17T08:31:28.353Z,-3.20
2022-12-17T08:34:10.937Z,-3.42
2022-12-17T08:36:53.624Z,-3.24
2022-12-17T08:39:36.108Z,-3.07
2022-12-17T08:42:18.963Z,-2.94
2022-12-17T08:45:03.930Z,-2.84
2022-12-17T08:47:46.694Z,-2.73
2022-12-17T08:50:29.056Z,-2.76
2022-12-17T08:53:15.846Z,-3.22
2022-12-17T08:55:58.417Z,-2.96
2022-12-17T08:58:41.294Z,-3.24
2022-12-17T09:01:27.439Z,-3.47
2022-12-17T09:04:10.127Z,-3.28
2022-12-17T09:06:52.467Z,-3.64
2022-12-17T09:09:35.416Z,-3.48
2022-12-17T09:12:18.277Z,-3.32
2022-12-17T09:15:01.348Z,-3.16
2022-12-17T09:17:49.298Z,-3.37
2022-12-17T09:20:32.217Z,-3.36
2022-12-17T09:23:14.616Z,-3.11
2022-12-17T09:25:58.301Z,-3.00
2022-12-17T09:28:40.864Z,-3.34
2022-12-17T09:31:23.584Z,-3.79
2022-12-17T09:34:08.616Z,-3.84
2022-12-17T09:36:53.474Z,-3.74
2022-12-17T09:39:35.820Z,-3.70
2022-12-17T09:42:30.037Z,-3.89
2022-12-17T09:45:22.128Z,-3.59
2022-12-17T09:48:13.108Z,-3.50
2022-12-17T09:50:58.834Z,-3.41
2022-12-17T09:53:52.052Z,-3.33
2022-12-17T09:56:38.510Z,-3.30
2022-12-17T09:59:21.233Z,-3.11
2022-12-17T10:02:03.747Z,-2.90
2022-12-17T10:04:52.391Z,-2.77
2022-12-17T10:07:40.131Z,-3.30
2022-12-17T10:10:32.268Z,-3.28
2022-12-17T10:13:14.585Z,-2.87
2022-12-17T10:15:58.124Z,-3.24
2022-12-17T10:18:40.616Z,-3.20
2022-12-17T10:21:27.056Z,-3.24
2022-12-17T10:24:23.322Z,-3.18
2022-12-17T10:27:06.070Z,-2.99
2022-12-17T10:29:49.310Z,-3.01
2022-12-17T10:32:39.367Z,-2.75
2022-12-17T10:35:31.810Z,-2.84
2022-12-17T10:38:15.724Z,-3.07
2022-12-17T10:41:00.958Z,-3.04
2022-12-17T10:43:45.622Z,-3.05
2022-12-17T10:46:41.258Z,-3.10
2022-12-17T10:49:29.567Z,-2.99
2022-12-17T10:52:19.621Z,-2.85
2022-12-17T10:55:12.183Z,-2.69
2022-12-17T10:57:58.158Z,-2.65
2022-12-17T11:00:49.490Z,-2.55
2022-12-17T11:03:48.913Z,-2.68
2022-12-17T11:06:42.284Z,-2.76
2022-12-17T11:09:42.900Z,-2.80
2022-12-17T11:12:30.831Z,-2.76
2022-12-17T11:15:24.025Z,-3.24
2022-12-17T11:18:11.317Z,-3.34
2022-12-17T11:21:02.723Z,-3.22
2022-12-17T11:23:48.749Z,-3.37
2022-12-17T11:26:34.939Z,-3.11
2022-12-17T11:29:20.991Z,-2.87
2022-12-17T11:32:28.130Z,-2.69
2022-12-17T11:35:22.465Z,-2.89
2022-12-17T11:38:15.775Z,-2.90
2022-12-17T11:41:04.194Z,-2.97
2022-12-17T11:43:54.955Z,-3.21
2022-12-17T11:46:50.641Z,-2.84
2022-12-17T11:49:44.479Z,-2.61
2022-12-17T11:52:39.785Z,-2.79
2022-12-17T11:55:36.296Z,-2.94
2022-12-17T11:58:21.971Z,-2.72
2022-12-17T12:01:16.702Z,-3.14
2022-12-17T12:04:11.231Z,-3.11
2022-12-17T12:07:04.887Z,-3.33
2022-12-17T12:09:56.455Z,-3.21
2022-12-17T12:12:52.112Z,-3.38
2022-12-17T12:15:45.036Z,-3.00
2022-12-17T12:18:33.768Z,-2.88
2022-12-17T12:21:50.640Z,-2.85
2022-12-17T12:24:55.525Z,-2.98
2022-12-17T12:27:48.563Z,-2.85
2022-12-17T12:30:33.604Z,-2.93
2022-12-17T12:33:23.207Z,-3.11
2022-12-17T12:36:08.188Z,-3.40
2022-12-17T12:38:58.560Z,-3.23
2022-12-17T12:41:54.833Z,-3.11
2022-12-17T12:44:48.342Z,-3.31
2022-12-17T12:47:38.791Z,-3.26
2022-12-17T12:50:31.167Z,-3.38
2022-12-17T12:53:14.467Z,-3.09
2022-12-17T12:55:58.278Z,-3.01
2022-12-17T12:58:44.885Z,-2.83
2022-12-17T13:01:28.403Z,-3.00
2022-12-17T13:04:12.189Z,-2.83
2022-12-17T13:06:45.723Z,-2.74
2022-12-17T13:09:30.713Z,-2.65
2022-12-17T13:12:32.747Z,-2.80
2022-12-17T13:15:28.903Z,-2.57
2022-12-17T13:18:17.857Z,-2.54
2022-12-17T13:21:00.020Z,-2.50
2022-12-17T13:23:36.702Z,-2.46
2022-12-17T13:26:26.569Z,-2.44
2022-12-17T13:29:15.201Z,-2.76
2022-12-17T13:31:58.436Z,-2.96
2022-12-17T13:34:36.659Z,-2.90
2022-12-17T13:37:13.805Z,-2.85
2022-12-17T13:39:52.104Z,-3.09
2022-12-17T13:42:30.435Z,-2.97
2022-12-17T13:45:01.966Z,-3.21
2022-12-17T13:47:38.379Z,-3.64
2022-12-17T13:50:38.859Z,-3.81
2022-12-17T13:53:13.380Z,-3.60
2022-12-17T13:55:43.891Z,-3.41
2022-12-17T13:58:28.844Z,-3.26
2022-12-17T14:01:10.434Z,-3.36
2022-12-17T14:04:05.708Z,-3.66
2022-12-17T14:06:40.149Z,-3.71
2022-12-17T14:09:10.206Z,-3.60
2022-12-17T14:11:53.182Z,-3.50
2022-12-17T14:14:33.967Z,-3.16
2022-12-17T14:17:05.194Z,-3.65
2022-12-17T14:19:40.007Z,-3.34
2022-12-17T14:22:14.921Z,-3.28
2022-12-17T14:24:45.506Z,-3.15
2022-12-17T14:27:25.937Z,-3.36
2022-12-17T14:29:57.733Z,-3.30
2022-12-17T14:32:35.204Z,-3.07
2022-12-17T14:35:35.410Z,-3.05
2022-12-17T14:38:05.739Z,-3.20
2022-12-17T14:40:35.918Z,-3.06
2022-12-17T14:43:03.588Z,-3.22
2022-12-17T14:45:53.611Z,-3.30
2022-12-17T14:48:49.439Z,-3.68
2022-12-17T14:51:31.365Z,-3.48
2022-12-17T14:54:22.185Z,-3.17
2022-12-17T14:56:57.768Z,-2.94
2022-12-17T14:59:41.582Z,-3.08
2022-12-17T15:02:23.816Z,-3.00
2022-12-17T15:04:56.685Z,-3.20
2022-12-17T15:07:31.524Z,-3.29
2022-12-17T15:10:13.124Z,-3.47
2022-12-17T15:12:45.146Z,-3.73
2022-12-17T15:15:16.180Z,-3.46
2022-12-17T15:17:46.815Z,-3.22
2022-12-17T15:20:20.130Z,-3.15
2022-12-17T15:22:52.686Z,-3.16
2022-12-17T15:25:23.176Z,-3.49
2022-12-17T15:27:53.323Z,-3.27
2022-12-17T15:30:23.598Z,-3.57
2022-12-17T15:32:53.554Z,-3.52
2022-12-17T15:35:24.747Z,-3.84
2022-12-17T15:37:57.298Z,-3.83
2022-12-17T15:40:27.599Z,-3.78
2022-12-17T15:43:09.995Z,-3.81
2022-12-17T15:45:40.650Z,-4.12
2022-12-17T15:48:10.666Z,-4.11
2022-12-17T15:50:40.997Z,-4.27
2022-12-17T15:53:13.650Z,-4.20
2022-12-17T15:55:44.683Z,-4.36
2022-12-17T15:58:14.876Z,-4.20
2022-12-17T16:00:45.084Z,-4.07
2022-12-17T16:03:15.103Z,-4.62
2022-12-17T16:05:45.505Z,-4.59
2022-12-17T16:08:19.068Z,-4.50
2022-12-17T16:10:49.328Z,-4.51
2022-12-17T16:13:19.285Z,-4.57
2022-12-17T16:16:03.597Z,-4.27
2022-12-17T16:18:34.478Z,-4.11
2022-12-17T16:21:05.982Z,-4.14
2022-12-17T16:23:39.324Z,-4.06
2022-12-17T16:26:11.659Z,-3.89
2022-12-17T16:28:41.886Z,-3.87
2022-12-17T16:31:15.035Z,-3.82
2022-12-17T16:33:48.130Z,-3.72
2022-12-17T16:36:20.995Z,-3.94
2022-12-17T16:38:57.399Z,-3.94
2022-12-17T16:41:27.935Z,-4.11
2022-12-17T16:43:58.227Z,-3.94
2022-12-17T16:46:31.031Z,-3.89
2022-12-17T16:49:05.237Z,-3.92
2022-12-17T16:51:36.165Z,-4.05
2022-12-17T16:54:15.820Z,-4.22
2022-12-17T16:56:47.785Z,-4.11
2022-12-17T16:59:19.638Z,-4.23
2022-12-17T17:01:52.050Z,-4.23
2022-12-17T17:04:24.005Z,-4.15
2022-12-17T17:06:56.039Z,-4.53
2022-12-17T17:09:28.913Z,-4.71
2022-12-17T17:12:00.244Z,-4.78
2022-12-17T17:14:30.527Z,-4.60
2022-12-17T17:17:00.760Z,-4.24
2022-12-17T17:19:32.361Z,-4.45
2022-12-17T17:22:03.066Z,-4.38
2022-12-17T17:24:35.665Z,-4.46
2022-12-17T17:27:05.971Z,-4.53
2022-12-17T17:29:35.961Z,-4.46
2022-12-17T17:32:11.051Z,-4.43
2022-12-17T17:34:42.043Z,-4.47
2022-12-17T17:37:13.515Z,-4.46
2022-12-17T17:39:46.237Z,-4.50
2022-12-17T17:42:16.507Z,-4.71
2022-12-17T17:44:46.421Z,-4.79
2022-12-17T17:47:16.614Z,-4.55
2022-12-17T17:49:46.541Z,-4.40
2022-12-17T17:52:32.060Z,-4.72
2022-12-17T17:55:04.817Z,-4.78
2022-12-17T17:57:35.028Z,-4.68
2022-12-17T18:00:05.451Z,-4.85
2022-12-17T18:02:35.912Z,-4.73
2022-12-17T18:05:06.284Z,-4.64
2022-12-17T18:07:36.563Z,-4.77
2022-12-17T18:10:10.621Z,-4.93
2022-12-17T18:12:53.299Z,-4.86
2022-12-17T18:15:25.760Z,-4.79
2022-12-17T18:17:56.022Z,-4.88
2022-12-17T18:20:34.746Z,-4.67
2022-12-17T18:23:05.025Z,-4.95
2022-12-17T18:25:38.151Z,-4.85
2022-12-17T18:28:08.397Z,-4.93
2022-12-17T18:30:41.046Z,-4.96
2022-12-17T18:33:11.412Z,-5.13
2022-12-17T18:35:47.348Z,-5.10
2022-12-17T18:38:17.614Z,-5.11
2022-12-17T18:40:50.201Z,-5.09
2022-12-17T18:43:24.009Z,-5.12
2022-12-17T18:45:55.029Z,-4.99
2022-12-17T18:48:25.598Z,-4.99
2022-12-17T18:50:59.775Z,-5.02
2022-12-17T18:53:33.622Z,-5.15
2022-12-17T18:56:12.515Z,-5.19
2022-12-17T18:58:44.309Z,-5.01
2022-12-17T19:01:22.210Z,-5.03
2022-12-17T19:03:53.568Z,-5.02
2022-12-17T19:06:25.685Z,-4.99
2022-12-17T19:08:56.212Z,-5.07
2022-12-17T19:11:29.408Z,-5.26
2022-12-17T19:14:00.164Z,-5.36
2022-12-17T19:16:32.097Z,-5.29
2022-12-17T19:19:04.570Z,-5.28
2022-12-17T19:21:37.050Z,-5.21
2022-12-17T19:24:10.386Z,-5.38
2022-12-17T19:26:43.377Z,-5.29
2022-12-17T19:29:15.268Z,-5.29
2022-12-17T19:31:46.455Z,-5.47
2022-12-17T19:34:19.322Z,-5.55
2022-12-17T19:36:50.740Z,-5.79
2022-12-17T19:39:23.122Z,-5.81
2022-12-17T19:41:55.924Z,-5.75
2022-12-17T19:44:27.104Z,-5.61
2022-12-17T19:46:58.269Z,-5.57
2022-12-17T19:49:28.861Z,-5.65
2022-12-17T19:51:59.200Z,-5.49
2022-12-17T19:54:29.777Z,-5.38
2022-12-17T19:57:02.741Z,-5.38
2022-12-17T19:59:32.960Z,-5.38
2022-12-17T20:02:03.846Z,-5.47
2022-12-17T20:04:34.402Z,-5.86
2022-12-17T20:07:04.350Z,-5.59
2022-12-17T20:09:34.594Z,-5.58
2022-12-17T20:12:07.437Z,-5.54
2022-12-17T20:14:37.740Z,-5.47
2022-12-17T20:17:08.398Z,-5.66
2022-12-17T20:19:38.985Z,-5.70
2022-12-17T20:22:09.407Z,-5.77
2022-12-17T20:24:39.954Z,-5.79
2022-12-17T20:27:12.584Z,-5.60
2022-12-17T20:29:42.819Z,-5.81
2022-12-17T20:32:12.872Z,-5.84
2022-12-17T20:34:43.143Z,-5.72
2022-12-17T20:37:13.111Z,-5.62
2022-12-17T20:39:43.422Z,-5.76
2022-12-17T20:42:17.781Z,-6.10
2022-12-17T20:44:53.268Z,-5.89
2022-12-17T20:47:23.589Z,-5.68
2022-12-17T20:49:53.994Z,-5.63
2022-12-17T20:52:23.969Z,-5.74
2022-12-17T20:54:54.356Z,-5.58
2022-12-17T20:57:39.281Z,-5.60
2022-12-17T21:00:11.329Z,-5.84
2022-12-17T21:02:41.495Z,-5.76
2022-12-17T21:05:12.090Z,-5.64
2022-12-17T21:07:41.949Z,-5.59
2022-12-17T21:10:12.741Z,-5.97
2022-12-17T21:12:58.377Z,-5.98
2022-12-17T21:15:30.895Z,-5.79
2022-12-17T21:18:00.817Z,-5.62
2022-12-17T21:20:31.238Z,-5.67
2022-12-17T21:23:01.694Z,-6.02
2022-12-17T21:25:32.490Z,-6.14
2022-12-17T21:28:05.183Z,-6.24
2022-12-17T21:30:39.547Z,-6.03
2022-12-17T21:33:09.547Z,-5.86
2022-12-17T21:35:40.166Z,-5.95
2022-12-17T21:38:10.923Z,-5.88
2022-12-17T21:40:41.372Z,-6.09
2022-12-17T21:43:14.186Z,-6.14
2022-12-17T21:45:45.047Z,-6.22
2022-12-17T21:48:15.539Z,-5.97
2022-12-17T21:50:47.413Z,-6.08
2022-12-17T21:53:18.316Z,-6.11
2022-12-17T21:55:49.168Z,-6.10
2022-12-17T21:58:22.655Z,-6.04
2022-12-17T22:00:53.181Z,-5.93
2022-12-17T22:03:23.566Z,-5.85
2022-12-17T22:05:53.866Z,-6.01
2022-12-17T22:08:23.877Z,-6.04
2022-12-17T22:10:54.783Z,-5.87
2022-12-17T22:13:39.721Z,-5.71
2022-12-17T22:16:11.203Z,-5.77
2022-12-17T22:18:44.134Z,-5.86
2022-12-17T22:21:14.466Z,-5.79
2022-12-17T22:23:44.812Z,-5.96
2022-12-17T22:26:16.090Z,-6.03
2022-12-17T22:28:50.117Z,-5.97
2022-12-17T22:31:36.441Z,-5.91
2022-12-17T22:35:20.287Z,-5.94
2022-12-17T22:40:14.477Z,-5.97
2022-12-17T22:44:34.854Z,-6.00
2022-12-17T22:44:36.377Z,-6.05
2022-12-17T22:45:45.405Z,-5.87
2022-12-17T22:48:22.235Z,-6.07
2022-12-17T22:51:01.588Z,-6.21
2022-12-17T22:53:37.643Z,-6.17
2022-12-17T22:56:17.249Z,-6.12
2022-12-17T22:58:58.062Z,-6.28
2022-12-17T23:01:31.303Z,-6.16
2022-12-17T23:04:04.240Z,-6.22
2022-12-17T23:10:50.919Z,-6.26
2022-12-17T23:17:17.004Z,-6.42
2022-12-17T23:19:47.385Z,-6.39
2022-12-17T23:22:22.355Z,-6.23
2022-12-17T23:24:52.807Z,-6.17
2022-12-17T23:27:22.752Z,-6.22
2022-12-17T23:29:53.326Z,-6.33
2022-12-17T23:32:26.080Z,-6.28
2022-12-17T23:34:56.546Z,-6.22
2022-12-17T23:37:26.721Z,-6.39
2022-12-17T23:39:57.004Z,-6.37
2022-12-17T23:42:26.973Z,-6.54
2022-12-17T23:44:57.303Z,-6.31
2022-12-17T23:47:29.837Z,-6.25
2022-12-17T23:50:00.431Z,-6.23
2022-12-17T23:52:32.157Z,-6.25
2022-12-17T23:55:04.699Z,-6.53
2022-12-17T23:57:34.876Z,-6.48
